Time;durP1;ratioP1;P1;durP2;ratioP2;P2;SDS_P1;SDS_P2;PMS_P1;PMS_P2;Temp;Humidity;BMP_temperature;BMP_pressure;BME280_temperature;BME280_humidity;BME280_pressure;Samples;Min_cycle;Max_cycle;Signal;HPM_P1;HPM_P2
2022/06/16 00:00:03;;;;;;;;;;;;;;;10.39;79.86;100889.88;84681;1330;22580;-69
2022/06/16 00:02:26;;;;;;;;;;;;;;;10.39;79.98;100892.33;84677;1329;22598;-70
2022/06/16 00:04:30;;;;;;;;;;;;;;;10.38;80.16;100889.73;84744;1326;22582;-70
2022/06/16 00:06:33;;;;;;;;;;;;;;;10.38;79.98;100891.13;84766;1327;22594;-70
2022/06/16 00:08:36;;;;;;;;;;;;;;;10.37;80.15;100889.08;84726;1327;24357;-70
2022/06/16 00:11:16;;;;;;;;;;;;;;;10.35;80.09;100887.05;84714;1330;23001;-69
2022/06/16 00:13:05;;;;;;;;;;;;;;;10.32;79.96;100886.75;84753;1330;23156;-69
2022/06/16 00:15:11;;;;;;;;;;;;;;;10.33;80.34;100887.60;84761;1330;22586;-71
2022/06/16 00:17:15;;;;;;;;;;;;;;;10.33;80.17;100891.24;84766;1330;22584;-71
2022/06/16 00:19:18;;;;;;;;;;;;;;;10.33;80.22;100886.37;84748;1326;22593;-71
2022/06/16 00:21:21;;;;;;;;;;;;;;;10.34;80.09;100887.76;84697;1328;22577;-71
2022/06/16 00:23:25;;;;;;;;;;;;;;;10.34;80.12;100885.66;84740;1329;22632;-71
2022/06/16 00:25:28;;;;;;;;;;;;;;;10.36;80.17;100886.33;84739;1326;25422;-70
2022/06/16 00:27:32;;;;;;;;;;;;;;;10.37;80.30;100885.24;84721;1326;22637;-71
2022/06/16 00:29:35;;;;;;;;;;;;;;;10.36;80.31;100883.02;84703;1326;24282;-69
2022/06/16 00:31:38;;;;;;;;;;;;;;;10.32;80.12;100882.56;84706;1330;22617;-71
2022/06/16 00:33:41;;;;;;;;;;;;;;;10.28;80.08;100879.73;84740;1326;22974;-72
2022/06/16 00:35:45;;;;;;;;;;;;;;;10.25;80.13;100879.64;84723;1326;24208;-72
2022/06/16 00:37:48;;;;;;;;;;;;;;;10.22;80.40;100881.41;84692;1328;23982;-71
2022/06/16 00:39:51;;;;;;;;;;;;;;;10.22;80.50;100876.37;84721;1327;22605;-71
2022/06/16 00:42:16;;;;;;;;;;;;;;;10.20;80.71;100873.48;84748;1327;25221;-71
2022/06/16 00:44:38;;;;;;;;;;;;;;;10.19;80.59;100874.73;84705;1329;23919;-71
2022/06/16 00:46:41;;;;;;;;;;;;;;;10.15;80.64;100876.94;84727;1326;25288;-70
2022/06/16 00:48:46;;;;;;;;;;;;;;;10.10;80.66;100870.61;84731;1326;24423;-71
2022/06/16 00:50:55;;;;;;;;;;;;;;;10.06;80.66;100867.77;84740;1326;22576;-71
2022/06/16 00:52:58;;;;;;;;;;;;;;;10.02;80.79;100865.96;84730;1326;25418;-72
2022/06/16 00:55:05;;;;;;;;;;;;;;;10.00;80.93;100864.98;84702;1327;22615;-71
2022/06/16 00:57:13;;;;;;;;;;;;;;;9.97;81.08;100862.98;84694;1330;25270;-71
2022/06/16 00:59:16;;;;;;;;;;;;;;;9.94;81.16;100861.64;84775;1327;22688;-69
2022/06/16 01:01:20;;;;;;;;;;;;;;;9.92;81.29;100863.62;84683;1326;24129;-71
2022/06/16 01:05:46;;;;;;;;;;;;;;;9.92;81.54;100859.80;84729;1325;22518;-70
2022/06/16 01:07:50;;;;;;;;;;;;;;;9.92;81.60;100862.42;84718;1327;23921;-71
2022/06/16 01:09:53;;;;;;;;;;;;;;;9.92;81.71;100858.57;84695;1328;24196;-69
2022/06/16 01:14:28;;;;;;;;;;;;;;;9.96;81.73;100853.26;84668;1327;24515;-69
2022/06/16 01:16:33;;;;;;;;;;;;;;;9.97;81.78;100851.27;84697;1327;22625;-71
2022/06/16 01:18:41;;;;;;;;;;;;;;;9.99;81.66;100849.46;84687;1326;22818;-70
2022/06/16 01:20:46;;;;;;;;;;;;;;;10.00;81.85;100844.06;84718;1330;22616;-69
2022/06/16 01:23:26;;;;;;;;;;;;;;;10.00;81.74;100843.70;84714;1326;22577;-70
2022/06/16 01:25:37;;;;;;;;;;;;;;;9.98;81.58;100843.74;84572;1329;22604;-71
2022/06/16 01:28:16;;;;;;;;;;;;;;;9.99;81.75;100844.59;84719;1329;22760;-69
2022/06/16 01:30:20;;;;;;;;;;;;;;;10.01;81.76;100844.58;84702;1326;22722;-70
2022/06/16 01:32:28;;;;;;;;;;;;;;;10.00;81.75;100846.48;84819;1326;22575;-70
2022/06/16 01:34:35;;;;;;;;;;;;;;;9.99;81.66;100845.48;84827;1326;23922;-70
2022/06/16 01:36:48;;;;;;;;;;;;;;;9.96;81.65;100844.52;84841;1329;22587;-71
2022/06/16 01:38:53;;;;;;;;;;;;;;;9.93;81.72;100844.95;84831;1328;22647;-70
2022/06/16 01:40:58;;;;;;;;;;;;;;;9.90;81.68;100841.55;84791;1326;22629;-71
2022/06/16 01:43:06;;;;;;;;;;;;;;;9.86;81.64;100835.73;84833;1327;25346;-71
2022/06/16 01:45:12;;;;;;;;;;;;;;;9.82;81.71;100837.06;84820;1323;22847;-71
2022/06/16 01:47:17;;;;;;;;;;;;;;;9.78;81.78;100837.17;84835;1326;23925;-69
2022/06/16 01:49:22;;;;;;;;;;;;;;;9.74;81.86;100838.49;84823;1325;22567;-70
2022/06/16 01:51:27;;;;;;;;;;;;;;;9.70;81.92;100841.90;84817;1326;22637;-70
2022/06/16 01:53:32;;;;;;;;;;;;;;;9.67;81.97;100842.71;84816;1326;22812;-71
2022/06/16 01:55:37;;;;;;;;;;;;;;;9.64;82.06;100841.21;84818;1327;22563;-71
2022/06/16 01:57:42;;;;;;;;;;;;;;;9.61;82.13;100843.39;84815;1326;22597;-71
2022/06/16 01:59:48;;;;;;;;;;;;;;;9.58;82.11;100845.71;84791;1330;22605;-71
2022/06/16 02:01:58;;;;;;;;;;;;;;;9.54;82.26;100842.50;84801;1326;22970;-70
2022/06/16 02:04:06;;;;;;;;;;;;;;;9.51;82.33;100844.33;84811;1327;22602;-70
2022/06/16 02:06:12;;;;;;;;;;;;;;;9.50;82.31;100844.52;84822;1328;23918;-70
2022/06/16 02:08:17;;;;;;;;;;;;;;;9.49;82.54;100844.04;84829;1326;23481;-69
2022/06/16 02:10:23;;;;;;;;;;;;;;;9.49;82.57;100843.87;84813;1330;24391;-70
2022/06/16 02:14:50;;;;;;;;;;;;;;;9.49;82.66;100842.80;84823;1326;23681;-71
2022/06/16 02:16:53;;;;;;;;;;;;;;;9.51;82.66;100843.11;84814;1327;22659;-71
2022/06/16 02:18:57;;;;;;;;;;;;;;;9.53;82.79;100845.69;84823;1326;22738;-70
2022/06/16 02:21:02;;;;;;;;;;;;;;;9.55;82.79;100848.91;84825;1326;22602;-71
2022/06/16 02:23:05;;;;;;;;;;;;;;;9.57;82.82;100850.80;84825;1323;22618;-71
2022/06/16 02:25:09;;;;;;;;;;;;;;;9.62;82.80;100852.60;84804;1327;22580;-71
2022/06/16 02:27:12;;;;;;;;;;;;;;;9.66;82.99;100848.46;84786;1327;22695;-70
2022/06/16 02:29:26;;;;;;;;;;;;;;;9.73;83.08;100844.80;84786;1324;22557;-70
2022/06/16 02:31:37;;;;;;;;;;;;;;;9.80;83.03;100843.73;84813;1327;23932;-70
2022/06/16 02:33:44;;;;;;;;;;;;;;;9.82;82.69;100842.81;84797;1326;22637;-71
2022/06/16 02:35:50;;;;;;;;;;;;;;;9.82;82.59;100848.92;84807;1326;23793;-71
2022/06/16 02:38:12;;;;;;;;;;;;;;;9.83;82.52;100851.84;84796;1326;22610;-70
2022/06/16 02:40:29;;;;;;;;;;;;;;;9.82;82.50;100853.27;84785;1326;22881;-71
2022/06/16 02:42:35;;;;;;;;;;;;;;;9.80;82.51;100855.41;84774;1326;22589;-70
2022/06/16 02:44:42;;;;;;;;;;;;;;;9.81;82.72;100854.88;84802;1326;22560;-70
2022/06/16 02:46:52;;;;;;;;;;;;;;;9.81;82.84;100853.30;84814;1326;24249;-70
2022/06/16 02:49:02;;;;;;;;;;;;;;;9.81;82.77;100849.64;84684;1330;22575;-71
2022/06/16 02:51:08;;;;;;;;;;;;;;;9.82;82.95;100850.81;84824;1326;22598;-71
2022/06/16 02:53:17;;;;;;;;;;;;;;;9.86;83.15;100850.02;84821;1326;22579;-70
2022/06/16 02:55:23;;;;;;;;;;;;;;;9.90;83.33;100851.30;84856;1326;23930;-71
2022/06/16 02:57:35;;;;;;;;;;;;;;;9.93;83.45;100850.34;84803;1326;25266;-70
2022/06/16 02:59:40;;;;;;;;;;;;;;;9.98;83.62;100851.09;84813;1329;25964;-71
2022/06/16 03:01:44;;;;;;;;;;;;;;;10.02;83.68;100851.48;84772;1326;22651;-70
2022/06/16 03:04:01;;;;;;;;;;;;;;;10.07;83.77;100853.80;84818;1327;22571;-70
2022/06/16 03:06:05;;;;;;;;;;;;;;;10.12;83.96;100851.91;84788;1326;22574;-71
2022/06/16 03:08:09;;;;;;;;;;;;;;;10.18;84.08;100856.27;84803;1326;22634;-70
2022/06/16 03:10:13;;;;;;;;;;;;;;;10.27;84.31;100857.26;84800;1326;22842;-71
2022/06/16 03:12:18;;;;;;;;;;;;;;;10.38;84.61;100857.13;84803;1323;22694;-71
2022/06/16 03:14:21;;;;;;;;;;;;;;;10.48;84.79;100857.86;84805;1326;24267;-71
2022/06/16 03:16:25;;;;;;;;;;;;;;;10.60;84.92;100860.31;84799;1326;25288;-70
2022/06/16 03:18:28;;;;;;;;;;;;;;;10.72;85.26;100855.56;84781;1326;25423;-72
2022/06/16 03:20:32;;;;;;;;;;;;;;;10.85;85.09;100853.96;84803;1326;25217;-71
2022/06/16 03:22:36;;;;;;;;;;;;;;;10.96;85.07;100851.84;84791;1326;25434;-71
2022/06/16 03:24:39;;;;;;;;;;;;;;;11.09;85.10;100851.77;84779;1326;22577;-71
2022/06/16 03:26:42;;;;;;;;;;;;;;;11.23;85.25;100854.81;84793;1326;22617;-71
2022/06/16 03:28:46;;;;;;;;;;;;;;;11.39;85.30;100854.13;84762;1327;24394;-71
2022/06/16 03:30:49;;;;;;;;;;;;;;;11.53;85.13;100850.68;84788;1327;24061;-71
2022/06/16 03:32:52;;;;;;;;;;;;;;;11.68;85.05;100850.49;84764;1326;22579;-71
2022/06/16 03:34:56;;;;;;;;;;;;;;;11.83;85.11;100844.75;84785;1323;22744;-70
2022/06/16 03:36:59;;;;;;;;;;;;;;;12.02;84.88;100843.71;84779;1326;24682;-70
2022/06/16 03:39:04;;;;;;;;;;;;;;;12.22;84.53;100839.50;84774;1326;22764;-70
2022/06/16 03:41:07;;;;;;;;;;;;;;;12.40;84.26;100837.60;84783;1326;22604;-71
2022/06/16 03:43:10;;;;;;;;;;;;;;;12.56;84.01;100836.27;84775;1326;22592;-71
2022/06/16 03:45:14;;;;;;;;;;;;;;;12.74;83.85;100838.17;84784;1328;25961;-71
2022/06/16 03:47:17;;;;;;;;;;;;;;;12.89;83.51;100833.20;84784;1324;22564;-71
2022/06/16 03:49:20;;;;;;;;;;;;;;;13.01;82.86;100825.55;84764;1325;22587;-70
2022/06/16 03:51:24;;;;;;;;;;;;;;;13.09;82.47;100826.77;84752;1326;24366;-70
2022/06/16 03:53:27;;;;;;;;;;;;;;;13.19;82.32;100827.62;84745;1323;22582;-70
2022/06/16 03:55:31;;;;;;;;;;;;;;;13.29;82.00;100826.02;84733;1328;22750;-70
2022/06/16 03:57:34;;;;;;;;;;;;;;;13.47;82.43;100825.60;84430;1326;463695;-70
2022/06/16 03:59:37;;;;;;;;;;;;;;;13.87;83.48;100824.73;84711;1328;25293;-69
2022/06/16 04:01:41;;;;;;;;;;;;;;;14.34;83.56;100821.17;84747;1327;23954;-70
2022/06/16 04:04:02;;;;;;;;;;;;;;;14.77;82.70;100820.05;84762;1326;23841;-69
2022/06/16 04:06:06;;;;;;;;;;;;;;;15.09;80.72;100817.61;84743;1325;22629;-70
2022/06/16 04:08:10;;;;;;;;;;;;;;;15.24;79.27;100819.16;84738;1327;25419;-70
2022/06/16 04:10:13;;;;;;;;;;;;;;;15.32;78.21;100823.17;84816;1326;24321;-71
2022/06/16 04:12:17;;;;;;;;;;;;;;;15.49;77.87;100819.63;84729;1330;22632;-70
2022/06/16 04:14:21;;;;;;;;;;;;;;;15.68;77.28;100815.19;84711;1330;24276;-70
2022/06/16 04:16:24;;;;;;;;;;;;;;;15.88;76.13;100815.71;84726;1329;22592;-70
2022/06/16 04:18:27;;;;;;;;;;;;;;;16.03;75.55;100814.05;84717;1327;22596;-69
2022/06/16 04:20:31;;;;;;;;;;;;;;;16.16;74.84;100813.66;84715;1326;24505;-69
2022/06/16 04:22:34;;;;;;;;;;;;;;;16.33;74.44;100808.70;84726;1330;22579;-70
2022/06/16 04:24:38;;;;;;;;;;;;;;;16.52;73.74;100810.25;84814;1329;22670;-70
2022/06/16 04:26:41;;;;;;;;;;;;;;;16.79;73.33;100808.09;84725;1326;24400;-70
2022/06/16 04:28:44;;;;;;;;;;;;;;;17.11;72.80;100809.60;84734;1330;22575;-70
2022/06/16 04:30:48;;;;;;;;;;;;;;;17.41;71.91;100810.63;84706;1329;22648;-70
2022/06/16 04:32:51;;;;;;;;;;;;;;;17.76;71.13;100808.70;84699;1326;22870;-71
2022/06/16 04:34:55;;;;;;;;;;;;;;;18.08;70.12;100803.23;84702;1325;22651;-71
2022/06/16 04:36:58;;;;;;;;;;;;;;;18.36;68.63;100799.33;84709;1326;22569;-71
2022/06/16 04:39:01;;;;;;;;;;;;;;;18.66;68.01;100803.23;84708;1330;22671;-70
2022/06/16 04:41:04;;;;;;;;;;;;;;;18.89;67.16;100800.88;84715;1326;22538;-71
2022/06/16 04:43:08;;;;;;;;;;;;;;;18.99;66.56;100797.39;84681;1326;25291;-71
2022/06/16 04:45:12;;;;;;;;;;;;;;;19.14;65.62;100796.92;84708;1330;23893;-73
2022/06/16 04:47:15;;;;;;;;;;;;;;;19.45;64.80;100800.64;84715;1326;22923;-74
2022/06/16 04:49:19;;;;;;;;;;;;;;;19.84;64.28;100798.91;84723;1326;25421;-74
2022/06/16 04:51:22;;;;;;;;;;;;;;;20.18;63.50;100796.31;84712;1326;22599;-73
2022/06/16 04:53:25;;;;;;;;;;;;;;;20.65;62.45;100797.88;84709;1326;22593;-74
2022/06/16 04:55:29;;;;;;;;;;;;;;;21.28;61.82;100803.80;84674;1329;22580;-73
2022/06/16 04:57:34;;;;;;;;;;;;;;;21.82;60.36;100795.40;84643;1328;23780;-73
2022/06/16 04:59:37;;;;;;;;;;;;;;;22.41;59.43;100790.52;84763;1326;22826;-73
2022/06/16 05:01:41;;;;;;;;;;;;;;;23.07;57.63;100790.29;84762;1326;22588;-74
2022/06/16 05:03:44;;;;;;;;;;;;;;;23.71;54.61;100789.53;84773;1326;22554;-74
2022/06/16 05:05:48;;;;;;;;;;;;;;;24.37;53.97;100784.04;84772;1330;24043;-74
2022/06/16 05:07:52;;;;;;;;;;;;;;;25.25;52.41;100787.80;84751;1330;22606;-74
2022/06/16 05:09:56;;;;;;;;;;;;;;;25.91;49.14;100785.03;84740;1325;22901;-73
2022/06/16 05:11:59;;;;;;;;;;;;;;;26.50;47.12;100779.23;84747;1330;22573;-73
2022/06/16 05:14:02;;;;;;;;;;;;;;;27.12;44.62;100779.20;84743;1324;22618;-73
2022/06/16 05:16:06;;;;;;;;;;;;;;;27.36;44.40;100781.35;84753;1326;22646;-73
2022/06/16 05:18:12;;;;;;;;;;;;;;;27.62;43.29;100778.33;84751;1330;24279;-74
2022/06/16 05:20:15;;;;;;;;;;;;;;;27.84;40.92;100780.77;84779;1326;22567;-72
2022/06/16 05:22:19;;;;;;;;;;;;;;;28.17;40.64;100773.91;84741;1330;22567;-72
2022/06/16 05:24:22;;;;;;;;;;;;;;;28.75;39.85;100772.74;84853;1323;22976;-72
2022/06/16 05:26:25;;;;;;;;;;;;;;;29.27;39.81;100774.02;84753;1330;23770;-73
2022/06/16 05:28:29;;;;;;;;;;;;;;;29.54;37.82;100771.88;84728;1326;22668;-73
2022/06/16 05:30:32;;;;;;;;;;;;;;;29.84;38.29;100771.27;84736;1327;22618;-75
2022/06/16 05:32:36;;;;;;;;;;;;;;;30.03;37.07;100770.52;84718;1328;23751;-75
2022/06/16 05:34:39;;;;;;;;;;;;;;;30.14;36.11;100767.79;84815;1327;22530;-75
2022/06/16 05:36:44;;;;;;;;;;;;;;;30.29;36.04;100766.38;84739;1328;22583;-74
2022/06/16 05:38:47;;;;;;;;;;;;;;;30.42;34.83;100770.36;84747;1327;22556;-74
2022/06/16 05:40:56;;;;;;;;;;;;;;;30.53;34.42;100767.39;84725;1327;22946;-74
2022/06/16 05:43:00;;;;;;;;;;;;;;;30.61;34.12;100765.62;84717;1327;24192;-74
2022/06/16 05:45:04;;;;;;;;;;;;;;;30.76;34.72;100764.92;84743;1326;22558;-74
2022/06/16 05:47:08;;;;;;;;;;;;;;;30.99;33.78;100763.70;84738;1327;22649;-74
2022/06/16 05:49:12;;;;;;;;;;;;;;;31.08;32.89;100763.73;84753;1327;25445;-74
2022/06/16 05:51:16;;;;;;;;;;;;;;;31.32;33.14;100763.52;84754;1326;25463;-74
2022/06/16 05:53:19;;;;;;;;;;;;;;;31.55;32.42;100761.27;84758;1329;24059;-74
2022/06/16 05:55:23;;;;;;;;;;;;;;;31.58;31.62;100759.27;84741;1328;24406;-74
2022/06/16 05:57:27;;;;;;;;;;;;;;;31.57;31.99;100762.63;84716;1326;25422;-74
2022/06/16 05:59:30;;;;;;;;;;;;;;;31.69;31.40;100755.01;84741;1327;22579;-74
2022/06/16 06:01:33;;;;;;;;;;;;;;;31.84;31.02;100754.73;84754;1329;22551;-74
2022/06/16 06:03:38;;;;;;;;;;;;;;;32.07;30.66;100752.30;84762;1326;22571;-74
2022/06/16 06:05:41;;;;;;;;;;;;;;;32.17;31.21;100755.34;84731;1326;25420;-74
2022/06/16 06:17:16;;;;;;;;;;;;;;;31.99;29.96;100748.73;84725;1326;22611;-74
2022/06/16 06:19:25;;;;;;;;;;;;;;;31.78;30.76;100750.52;84763;1326;25429;-74
2022/06/16 06:23:50;;;;;;;;;;;;;;;30.63;31.19;100756.48;84720;1326;22871;-73
2022/06/16 06:25:54;;;;;;;;;;;;;;;30.03;31.44;100762.90;84757;1327;22549;-73
2022/06/16 06:27:57;;;;;;;;;;;;;;;29.59;32.29;100762.94;84743;1330;22641;-73
2022/06/16 06:30:01;;;;;;;;;;;;;;;29.44;33.02;100766.02;84753;1326;22641;-73
2022/06/16 06:32:07;;;;;;;;;;;;;;;29.59;33.18;100758.42;84728;1327;25288;-73
2022/06/16 06:34:10;;;;;;;;;;;;;;;29.70;32.78;100759.45;84773;1326;22659;-75
2022/06/16 06:36:13;;;;;;;;;;;;;;;29.75;32.87;100756.39;84708;1326;22580;-74
2022/06/16 06:38:17;;;;;;;;;;;;;;;29.91;32.40;100754.83;84719;1327;22585;-73
2022/06/16 06:40:22;;;;;;;;;;;;;;;30.07;32.27;100750.98;84709;1326;22715;-74
2022/06/16 06:42:26;;;;;;;;;;;;;;;30.13;32.13;100751.23;84710;1326;22543;-73
2022/06/16 06:44:29;;;;;;;;;;;;;;;30.27;31.60;100745.09;84722;1327;22573;-74
2022/06/16 06:46:32;;;;;;;;;;;;;;;30.33;31.38;100747.66;84747;1329;25234;-74
2022/06/16 06:48:36;;;;;;;;;;;;;;;30.40;31.44;100745.86;84736;1323;22563;-73
2022/06/16 06:50:40;;;;;;;;;;;;;;;30.64;30.84;100744.16;84719;1326;25298;-73
2022/06/16 06:52:43;;;;;;;;;;;;;;;30.76;30.46;100740.78;84732;1326;24209;-73
2022/06/16 06:54:47;;;;;;;;;;;;;;;30.81;30.18;100735.84;84708;1324;22838;-74
2022/06/16 06:56:50;;;;;;;;;;;;;;;30.77;30.34;100734.80;84722;1329;22660;-74
2022/06/16 06:58:54;;;;;;;;;;;;;;;30.79;30.77;100733.46;84718;1326;22602;-74
2022/06/16 07:01:00;;;;;;;;;;;;;;;30.75;30.68;100729.74;84751;1326;22735;-74
2022/06/16 07:03:03;;;;;;;;;;;;;;;30.82;30.81;100728.20;84735;1327;22700;-74
2022/06/16 07:05:07;;;;;;;;;;;;;;;31.03;30.87;100729.09;84736;1326;22617;-74
2022/06/16 07:07:12;;;;;;;;;;;;;;;31.10;30.54;100726.55;84694;1326;22593;-74
2022/06/16 07:09:17;;;;;;;;;;;;;;;31.13;30.48;100725.25;84719;1327;22742;-74
2022/06/16 07:11:20;;;;;;;;;;;;;;;31.05;30.21;100723.14;84743;1326;22999;-74
2022/06/16 07:13:24;;;;;;;;;;;;;;;31.06;30.70;100723.53;84743;1326;22575;-74
2022/06/16 07:15:28;;;;;;;;;;;;;;;31.18;30.01;100720.64;84736;1330;22552;-76
2022/06/16 07:17:31;;;;;;;;;;;;;;;31.20;29.65;100722.05;84727;1323;22592;-76
2022/06/16 07:19:35;;;;;;;;;;;;;;;31.09;30.31;100720.80;84766;1326;22591;-76
2022/06/16 07:21:39;;;;;;;;;;;;;;;31.13;29.44;100720.09;84730;1326;24219;-76
2022/06/16 07:23:42;;;;;;;;;;;;;;;31.16;29.12;100721.23;84727;1324;22571;-76
2022/06/16 07:25:46;;;;;;;;;;;;;;;31.03;29.80;100722.41;84730;1330;22586;-74
2022/06/16 07:27:50;;;;;;;;;;;;;;;31.03;29.15;100719.98;84721;1327;22579;-75
2022/06/16 07:29:54;;;;;;;;;;;;;;;31.08;29.26;100721.93;84743;1326;22575;-75
2022/06/16 07:31:58;;;;;;;;;;;;;;;31.21;29.06;100722.86;84772;1326;22609;-75
2022/06/16 07:34:02;;;;;;;;;;;;;;;31.22;29.13;100718.80;84771;1326;24008;-75
2022/06/16 07:36:06;;;;;;;;;;;;;;;31.24;28.55;100718.70;84735;1326;24257;-75
2022/06/16 07:38:10;;;;;;;;;;;;;;;31.31;28.90;100716.35;84754;1326;22569;-76
2022/06/16 07:40:13;;;;;;;;;;;;;;;31.32;28.85;100714.48;84792;1326;22572;-75
2022/06/16 07:42:17;;;;;;;;;;;;;;;31.30;28.54;100712.88;84834;1326;22540;-75
2022/06/16 07:44:21;;;;;;;;;;;;;;;31.36;28.16;100706.84;84799;1326;22527;-74
2022/06/16 07:46:24;;;;;;;;;;;;;;;31.53;28.26;100703.89;84817;1327;22601;-75
2022/06/16 07:48:28;;;;;;;;;;;;;;;31.93;28.26;100705.06;84782;1327;22579;-75
2022/06/16 07:50:31;;;;;;;;;;;;;;;32.40;27.92;100703.41;84809;1326;25436;-76
2022/06/16 07:52:35;;;;;;;;;;;;;;;32.76;26.78;100698.34;84781;1326;24133;-75
2022/06/16 07:54:38;;;;;;;;;;;;;;;32.86;26.16;100701.72;84756;1326;22645;-75
2022/06/16 07:56:42;;;;;;;;;;;;;;;32.94;26.08;100705.55;84842;1326;22613;-75
2022/06/16 07:58:46;;;;;;;;;;;;;;;33.15;25.95;100703.51;84752;1328;22551;-75
2022/06/16 08:00:49;;;;;;;;;;;;;;;33.43;26.43;100696.73;84877;1330;25289;-75
2022/06/16 08:02:55;;;;;;;;;;;;;;;33.99;26.06;100698.48;84885;1330;22628;-75
2022/06/16 08:04:58;;;;;;;;;;;;;;;34.73;24.97;100695.99;84913;1327;22588;-74
2022/06/16 08:07:01;;;;;;;;;;;;;;;35.22;24.29;100699.96;84875;1326;24234;-75
2022/06/16 08:09:06;;;;;;;;;;;;;;;35.57;23.92;100693.67;84838;1323;22608;-75
2022/06/16 08:12:03;;;;;;;;;;;;;;;35.78;23.35;100697.11;84852;1323;22947;-75
2022/06/16 08:13:33;;;;;;;;;;;;;;;35.78;23.39;100697.09;84808;1326;25428;-75
2022/06/16 08:15:37;;;;;;;;;;;;;;;35.89;23.05;100696.70;84805;1326;24010;-75
2022/06/16 08:17:42;;;;;;;;;;;;;;;35.96;21.98;100698.41;84869;1328;22869;-74
2022/06/16 08:19:45;;;;;;;;;;;;;;;35.95;22.53;100699.15;84919;1325;22686;-74
2022/06/16 08:21:48;;;;;;;;;;;;;;;35.82;22.11;100697.52;84882;1325;25231;-74
2022/06/16 08:23:52;;;;;;;;;;;;;;;35.58;22.97;100695.73;84848;1326;22534;-74
2022/06/16 08:25:56;;;;;;;;;;;;;;;35.21;22.92;100698.64;84821;1328;22667;-74
2022/06/16 08:27:59;;;;;;;;;;;;;;;34.83;23.62;100697.34;84839;1326;22571;-74
2022/06/16 08:30:04;;;;;;;;;;;;;;;34.80;23.98;100698.27;84871;1330;22546;-74
2022/06/16 08:32:11;;;;;;;;;;;;;;;34.85;23.56;100694.80;84876;1326;22839;-75
2022/06/16 08:34:15;;;;;;;;;;;;;;;34.45;23.88;100694.80;84885;1330;22581;-75
2022/06/16 08:36:18;;;;;;;;;;;;;;;33.85;24.14;100697.92;84851;1327;22559;-75
2022/06/16 08:38:21;;;;;;;;;;;;;;;33.19;24.34;100703.41;84835;1326;22602;-71
2022/06/16 08:40:25;;;;;;;;;;;;;;;32.56;24.80;100702.67;84768;1326;22755;-72
2022/06/16 08:42:31;;;;;;;;;;;;;;;31.96;25.32;100705.02;84785;1326;25273;-71
2022/06/16 08:44:39;;;;;;;;;;;;;;;31.41;26.07;100706.16;84813;1330;22555;-70
2022/06/16 08:46:45;;;;;;;;;;;;;;;30.96;26.17;100706.92;84814;1324;22590;-70
2022/06/16 08:48:58;;;;;;;;;;;;;;;30.50;26.71;100710.85;84785;1327;22724;-71
2022/06/16 08:51:04;;;;;;;;;;;;;;;30.21;26.91;100710.84;84778;1326;22654;-71
2022/06/16 08:53:16;;;;;;;;;;;;;;;29.97;27.81;100709.23;84789;1328;22659;-71
2022/06/16 08:55:21;;;;;;;;;;;;;;;29.79;28.31;100705.36;84788;1326;23921;-71
2022/06/16 08:57:31;;;;;;;;;;;;;;;29.64;28.86;100702.58;84758;1326;22576;-71
2022/06/16 08:59:37;;;;;;;;;;;;;;;30.23;28.71;100701.73;84782;1326;22752;-70
2022/06/16 09:01:44;;;;;;;;;;;;;;;31.05;28.18;100701.38;84765;1327;22777;-71
2022/06/16 09:03:48;;;;;;;;;;;;;;;31.38;26.33;100694.23;84771;1327;22608;-71
2022/06/16 09:05:53;;;;;;;;;;;;;;;31.34;25.95;100693.75;84755;1326;22943;-71
2022/06/16 09:08:00;;;;;;;;;;;;;;;31.63;27.69;100694.20;84774;1326;23291;-71
2022/06/16 09:10:15;;;;;;;;;;;;;;;32.19;26.81;100686.91;84743;1330;22587;-70
2022/06/16 09:12:26;;;;;;;;;;;;;;;32.45;24.59;100680.33;84748;1330;22594;-71
2022/06/16 09:17:02;;;;;;;;;;;;;;;32.89;25.01;100679.30;84754;1326;23424;-71
2022/06/16 09:19:17;;;;;;;;;;;;;;;33.15;24.63;100678.31;84753;1326;22578;-71
2022/06/16 09:21:25;;;;;;;;;;;;;;;33.27;23.85;100667.84;84752;1326;22597;-69
2022/06/16 09:23:58;;;;;;;;;;;;;;;33.38;23.57;100662.98;84777;1326;22523;-71
2022/06/16 09:26:13;;;;;;;;;;;;;;;33.33;24.02;100659.45;84702;1330;25422;-71
2022/06/16 09:28:18;;;;;;;;;;;;;;;33.29;23.54;100660.77;84726;1326;25943;-70
2022/06/16 09:30:23;;;;;;;;;;;;;;;33.19;23.69;100661.73;84743;1327;23794;-71
2022/06/16 09:32:28;;;;;;;;;;;;;;;33.16;24.21;100661.26;84772;1326;22592;-70
2022/06/16 09:34:35;;;;;;;;;;;;;;;33.17;23.86;100662.64;84769;1323;22861;-71
2022/06/16 09:36:43;;;;;;;;;;;;;;;33.09;23.54;100670.69;84763;1326;22538;-71
2022/06/16 09:38:48;;;;;;;;;;;;;;;32.78;23.72;100667.71;84740;1326;22589;-71
2022/06/16 09:40:54;;;;;;;;;;;;;;;32.27;23.48;100664.42;84743;1326;23029;-70
2022/06/16 09:42:59;;;;;;;;;;;;;;;31.82;23.66;100661.29;84750;1326;22601;-71
2022/06/16 09:45:06;;;;;;;;;;;;;;;31.37;24.40;100658.54;84750;1326;25425;-71
2022/06/16 09:47:10;;;;;;;;;;;;;;;30.87;25.33;100664.05;84751;1327;25943;-70
2022/06/16 09:49:15;;;;;;;;;;;;;;;30.49;25.47;100667.29;84785;1326;22620;-71
2022/06/16 09:51:21;;;;;;;;;;;;;;;30.13;26.70;100676.36;84788;1326;22812;-73
2022/06/16 09:53:30;;;;;;;;;;;;;;;29.76;27.79;100673.02;84801;1326;22541;-70
2022/06/16 09:55:35;;;;;;;;;;;;;;;29.49;28.00;100676.42;84776;1326;26005;-70
2022/06/16 09:57:40;;;;;;;;;;;;;;;29.29;27.94;100679.21;84785;1327;23812;-71
2022/06/16 09:59:45;;;;;;;;;;;;;;;29.13;28.52;100677.13;84796;1330;22877;-71
2022/06/16 10:01:51;;;;;;;;;;;;;;;29.01;27.99;100673.60;84764;1326;22807;-71
2022/06/16 10:03:56;;;;;;;;;;;;;;;28.93;28.86;100671.95;84779;1326;22586;-71
2022/06/16 10:06:10;;;;;;;;;;;;;;;28.88;29.00;100668.91;84827;1327;22567;-71
2022/06/16 10:08:16;;;;;;;;;;;;;;;28.87;28.14;100671.08;84817;1329;23741;-71
2022/06/16 10:10:23;;;;;;;;;;;;;;;28.85;28.05;100668.58;84790;1325;22583;-71
2022/06/16 10:12:31;;;;;;;;;;;;;;;28.84;28.30;100665.45;84769;1326;23828;-70
2022/06/16 10:14:37;;;;;;;;;;;;;;;28.79;28.63;100667.67;84810;1325;22580;-70
2022/06/16 10:16:46;;;;;;;;;;;;;;;28.69;27.95;100667.04;84771;1326;22587;-70
2022/06/16 10:18:50;;;;;;;;;;;;;;;28.49;28.44;100664.68;84810;1326;22732;-72
2022/06/16 10:20:53;;;;;;;;;;;;;;;28.46;28.69;100664.02;84769;1326;22578;-71
2022/06/16 10:22:59;;;;;;;;;;;;;;;28.47;29.23;100661.54;84791;1322;22593;-70
2022/06/16 10:25:05;;;;;;;;;;;;;;;28.62;30.17;100666.77;84814;1325;22590;-70
2022/06/16 10:27:08;;;;;;;;;;;;;;;28.91;30.74;100665.38;84782;1324;22680;-71
2022/06/16 10:29:21;;;;;;;;;;;;;;;29.28;28.72;100661.77;84733;1330;22744;-71
2022/06/16 10:31:35;;;;;;;;;;;;;;;29.43;27.45;100658.77;84822;1326;23944;-71
2022/06/16 10:33:52;;;;;;;;;;;;;;;29.60;27.19;100655.44;84776;1326;23075;-71
2022/06/16 10:35:57;;;;;;;;;;;;;;;29.69;26.39;100655.17;84746;1326;22564;-71
2022/06/16 10:38:00;;;;;;;;;;;;;;;29.69;25.94;100651.86;84773;1326;22593;-71
2022/06/16 10:40:06;;;;;;;;;;;;;;;29.71;26.71;100648.78;84778;1329;22595;-70
2022/06/16 10:42:17;;;;;;;;;;;;;;;29.76;27.22;100652.73;84784;1326;24374;-71
2022/06/16 10:44:22;;;;;;;;;;;;;;;29.82;27.55;100654.70;84751;1327;22577;-71
2022/06/16 10:46:28;;;;;;;;;;;;;;;29.89;26.58;100654.70;84756;1324;22777;-72
2022/06/16 10:48:35;;;;;;;;;;;;;;;29.78;25.92;100654.05;84747;1326;22657;-71
2022/06/16 10:50:39;;;;;;;;;;;;;;;29.62;26.24;100657.31;84755;1324;22668;-71
2022/06/16 10:52:47;;;;;;;;;;;;;;;29.49;26.51;100659.16;84735;1326;22595;-71
2022/06/16 10:54:56;;;;;;;;;;;;;;;29.43;26.55;100656.76;84775;1326;22588;-71
2022/06/16 10:57:08;;;;;;;;;;;;;;;29.44;27.11;100657.27;84810;1325;24284;-71
2022/06/16 10:59:19;;;;;;;;;;;;;;;29.45;26.62;100657.05;84755;1327;22994;-71
2022/06/16 11:01:24;;;;;;;;;;;;;;;29.45;25.60;100651.73;84777;1326;25422;-71
2022/06/16 11:03:27;;;;;;;;;;;;;;;29.51;26.19;100651.17;84793;1326;22701;-71
2022/06/16 11:05:32;;;;;;;;;;;;;;;29.61;25.76;100645.97;84752;1327;22577;-71
2022/06/16 11:07:37;;;;;;;;;;;;;;;29.68;25.82;100643.78;84753;1328;24369;-71